Time;durP1;ratioP1;P1;durP2;ratioP2;P2;SDS_P1;SDS_P2;PMS_P1;PMS_P2;Temp;Humidity;BMP_temperature;BMP_pressure;BME280_temperature;BME280_humidity;BME280_pressure;Samples;Min_cycle;Max_cycle;Signal;HPM_P1;HPM_P2
2021/05/16 00:01:28;;;;;;;14.75;12.05;;;10.20;94.10;;;;;;4980351;28;20041;-82
2021/05/16 00:03:54;;;;;;;17.88;13.50;;;10.20;94.10;;;;;;5003641;28;20380;-81
2021/05/16 00:06:20;;;;;;;18.30;15.30;;;10.20;94.10;;;;;;4999650;28;20040;-82
2021/05/16 00:08:47;;;;;;;16.00;14.05;;;10.20;94.10;;;;;;4964114;28;20667;-81
2021/05/16 00:11:19;;;;;;;19.20;14.93;;;10.20;94.20;;;;;;4979122;28;20037;-81
2021/05/16 00:13:48;;;;;;;17.45;13.80;;;10.20;94.20;;;;;;4989626;28;20037;-81
2021/05/16 00:16:14;;;;;;;18.65;15.50;;;10.20;94.20;;;;;;4998142;28;20045;-81
2021/05/16 00:18:41;;;;;;;22.45;15.65;;;10.10;94.10;;;;;;5016239;28;20042;-81
2021/05/16 00:21:07;;;;;;;17.55;14.75;;;10.20;94.20;;;;;;4997617;28;20049;-81
2021/05/16 00:23:33;;;;;;;19.15;15.38;;;10.10;94.20;;;;;;5001783;28;20304;-81
2021/05/16 00:25:59;;;;;;;20.52;16.33;;;10.10;94.20;;;;;;4972334;28;20909;-82
2021/05/16 00:28:25;;;;;;;24.80;17.17;;;10.10;94.30;;;;;;5013992;28;20133;-81
2021/05/16 00:30:52;;;;;;;24.13;16.23;;;10.10;94.30;;;;;;4973036;28;20033;-81
2021/05/16 00:33:18;;;;;;;20.92;16.88;;;10.10;94.40;;;;;;4970821;28;20040;-81
2021/05/16 00:35:44;;;;;;;21.83;17.67;;;10.10;94.50;;;;;;4986375;28;20432;-81
2021/05/16 00:38:09;;;;;;;22.92;17.42;;;10.10;94.40;;;;;;5021727;28;20036;-81
2021/05/16 00:40:35;;;;;;;18.27;15.38;;;10.10;94.40;;;;;;4984397;28;20523;-81
2021/05/16 00:43:03;;;;;;;21.10;17.42;;;10.10;94.60;;;;;;5004626;28;20041;-81
2021/05/16 00:45:29;;;;;;;23.27;17.35;;;10.10;94.60;;;;;;5007869;28;20120;-81
2021/05/16 00:47:58;;;;;;;22.38;16.00;;;10.10;94.50;;;;;;4996059;28;20048;-80
2021/05/16 00:50:28;;;;;;;21.83;17.08;;;10.10;94.60;;;;;;5033389;28;20504;-81
2021/05/16 00:52:54;;;;;;;23.95;17.95;;;10.10;94.90;;;;;;5022401;28;20034;-81
2021/05/16 00:55:21;;;;;;;27.23;19.98;;;10.10;94.90;;;;;;5009039;28;20213;-82
2021/05/16 00:57:47;;;;;;;22.73;17.98;;;10.00;94.70;;;;;;5005255;28;20037;-81
2021/05/16 01:00:16;;;;;;;21.67;17.85;;;10.10;94.70;;;;;;5009386;28;20052;-80
2021/05/16 01:02:43;;;;;;;21.77;16.35;;;10.10;94.70;;;;;;4987761;28;20048;-81
2021/05/16 01:05:13;;;;;;;22.75;18.35;;;10.00;94.70;;;;;;5005875;28;20037;-81
2021/05/16 01:07:39;;;;;;;24.83;19.52;;;10.00;94.70;;;;;;5018645;28;20072;-81
2021/05/16 01:10:07;;;;;;;19.88;17.40;;;10.10;94.70;;;;;;5021680;28;20033;-81
2021/05/16 01:12:41;;;;;;;30.38;20.13;;;10.10;94.70;;;;;;5003178;28;20029;-81
2021/05/16 01:15:09;;;;;;;27.13;20.48;;;10.10;94.70;;;;;;5026304;28;20064;-81
2021/05/16 01:17:36;;;;;;;27.98;19.23;;;10.10;94.70;;;;;;5025240;28;20048;-81
2021/05/16 01:20:05;;;;;;;25.40;19.20;;;10.10;94.70;;;;;;5022980;28;20480;-81
2021/05/16 01:22:30;;;;;;;26.30;21.33;;;10.10;94.80;;;;;;5015608;28;20381;-81
2021/05/16 01:24:56;;;;;;;28.05;20.80;;;10.10;94.80;;;;;;4986395;28;20037;-82
2021/05/16 01:27:23;;;;;;;28.83;19.67;;;10.10;94.90;;;;;;4987768;28;20095;-82
2021/05/16 01:29:49;;;;;;;28.02;21.00;;;10.10;94.90;;;;;;5019221;28;20037;-81
2021/05/16 01:32:20;;;;;;;27.40;21.15;;;10.10;95.00;;;;;;5024686;28;20033;-81
2021/05/16 01:34:47;;;;;;;24.20;21.00;;;10.10;94.90;;;;;;4971645;28;20045;-81
2021/05/16 01:37:14;;;;;;;31.30;22.98;;;10.20;94.90;;;;;;4998951;28;20087;-81
2021/05/16 01:39:44;;;;;;;30.65;22.65;;;10.10;94.80;;;;;;5008580;28;20042;-81
2021/05/16 01:42:10;;;;;;;28.02;22.05;;;10.20;94.90;;;;;;5013881;28;20025;-81
2021/05/16 01:44:37;;;;;;;30.00;21.85;;;10.20;94.90;;;;;;5013708;28;20381;-82
2021/05/16 01:47:03;;;;;;;29.30;21.83;;;10.10;94.90;;;;;;4970561;28;20042;-82
2021/05/16 01:49:48;;;;;;;29.42;21.63;;;10.10;94.90;;;;;;5017300;28;20056;-82
2021/05/16 01:52:15;;;;;;;29.30;20.98;;;10.10;94.90;;;;;;4991473;28;20033;-81
2021/05/16 01:54:41;;;;;;;30.35;21.90;;;10.10;94.90;;;;;;5007568;28;20471;-81
2021/05/16 01:57:08;;;;;;;26.88;21.27;;;10.10;94.90;;;;;;5010112;28;20037;-81
2021/05/16 01:59:36;;;;;;;28.02;22.10;;;10.10;95.00;;;;;;5011983;28;20042;-81
2021/05/16 02:02:03;;;;;;;28.02;22.35;;;10.10;95.00;;;;;;5024535;28;20498;-81
2021/05/16 02:04:32;;;;;;;30.85;23.00;;;10.10;95.00;;;;;;4996553;28;20063;-81
2021/05/16 02:06:59;;;;;;;26.75;22.10;;;10.10;95.10;;;;;;4998025;28;20481;-81
2021/05/16 02:09:26;;;;;;;30.17;22.70;;;10.10;95.10;;;;;;4987196;28;20050;-82
2021/05/16 02:11:52;;;;;;;26.63;22.42;;;10.10;95.10;;;;;;4994495;28;20047;-81
2021/05/16 02:14:29;;;;;;;29.45;23.60;;;10.10;95.10;;;;;;4998804;28;20037;-82
2021/05/16 02:16:57;;;;;;;28.33;22.77;;;10.10;95.20;;;;;;4995069;28;20068;-81
2021/05/16 02:19:23;;;;;;;29.73;23.65;;;10.10;95.20;;;;;;5011013;28;20610;-82
2021/05/16 02:21:49;;;;;;;25.92;21.08;;;10.10;95.20;;;;;;5008258;28;20282;-82
2021/05/16 02:24:16;;;;;;;27.17;22.42;;;10.10;95.20;;;;;;4983546;28;20832;-82
2021/05/16 02:26:42;;;;;;;28.52;23.60;;;10.10;95.20;;;;;;4994279;28;20064;-82
2021/05/16 02:29:08;;;;;;;27.30;22.35;;;10.10;95.20;;;;;;4998030;28;20483;-81
2021/05/16 02:31:34;;;;;;;27.30;22.45;;;10.10;95.30;;;;;;5022438;28;20036;-81
2021/05/16 02:34:01;;;;;;;30.38;22.65;;;10.10;95.30;;;;;;5023872;28;20385;-82
2021/05/16 02:36:27;;;;;;;29.05;22.30;;;10.10;95.60;;;;;;5006184;28;20033;-82
2021/05/16 02:38:53;;;;;;;29.40;22.15;;;10.10;95.30;;;;;;4983645;28;20186;-81
2021/05/16 02:41:19;;;;;;;29.67;23.52;;;10.10;95.30;;;;;;4971491;28;20429;-81
2021/05/16 02:43:45;;;;;;;29.77;22.25;;;10.10;95.30;;;;;;5007519;28;20037;-81
2021/05/16 02:46:11;;;;;;;31.45;23.20;;;10.20;95.30;;;;;;5028298;28;20044;-81
2021/05/16 02:48:37;;;;;;;30.77;23.42;;;10.20;95.30;;;;;;5011504;28;20679;-81
2021/05/16 02:51:03;;;;;;;27.98;21.88;;;10.10;95.40;;;;;;5028366;28;20079;-81
2021/05/16 02:53:29;;;;;;;27.20;22.35;;;10.10;95.40;;;;;;5011851;28;20045;-82
2021/05/16 02:55:55;;;;;;;29.05;23.45;;;10.20;95.40;;;;;;5011216;28;20037;-82
2021/05/16 02:58:21;;;;;;;31.10;23.42;;;10.20;95.40;;;;;;5012503;28;20203;-81
2021/05/16 03:00:47;;;;;;;32.45;23.58;;;10.20;95.40;;;;;;4993723;28;20045;-82
2021/05/16 03:03:13;;;;;;;31.67;24.08;;;10.20;95.50;;;;;;4974613;28;20069;-81
2021/05/16 03:05:39;;;;;;;33.60;24.75;;;10.20;95.50;;;;;;4987803;28;20045;-81
2021/05/16 03:08:05;;;;;;;32.60;24.13;;;10.20;95.50;;;;;;5018863;28;20041;-81
2021/05/16 03:10:31;;;;;;;34.08;25.80;;;10.20;95.50;;;;;;4983385;28;20116;-81
2021/05/16 03:12:57;;;;;;;33.03;24.98;;;10.20;95.50;;;;;;4997841;28;20029;-81
2021/05/16 03:15:23;;;;;;;34.90;25.55;;;10.20;95.50;;;;;;4974155;28;20088;-82
2021/05/16 03:17:48;;;;;;;37.75;26.25;;;10.20;95.40;;;;;;5005049;28;20069;-81
2021/05/16 03:20:15;;;;;;;40.38;27.10;;;10.30;95.40;;;;;;5018402;28;20498;-81
2021/05/16 03:22:41;;;;;;;38.92;27.30;;;10.30;95.40;;;;;;5021502;28;20508;-82
2021/05/16 03:25:09;;;;;;;35.95;25.35;;;10.30;95.40;;;;;;4993518;28;20033;-80
2021/05/16 03:27:35;;;;;;;40.65;27.83;;;10.30;95.40;;;;;;5019223;28;20025;-82
2021/05/16 03:30:01;;;;;;;40.70;26.30;;;10.30;95.40;;;;;;5001944;28;20056;-82
2021/05/16 03:32:27;;;;;;;37.80;27.10;;;10.30;95.40;;;;;;4983971;28;20040;-82
2021/05/16 03:34:53;;;;;;;39.33;27.00;;;10.30;95.40;;;;;;5007098;28;20042;-82
2021/05/16 03:37:19;;;;;;;41.10;28.02;;;10.30;95.40;;;;;;5013290;28;20038;-82
2021/05/16 03:39:45;;;;;;;42.15;27.23;;;10.30;95.40;;;;;;5008741;28;20040;-82
2021/05/16 03:42:10;;;;;;;42.08;27.10;;;10.30;95.40;;;;;;4981852;28;20171;-82
2021/05/16 03:44:36;;;;;;;43.60;27.30;;;10.20;95.30;;;;;;5004071;28;20040;-82
2021/05/16 03:47:02;;;;;;;42.72;27.00;;;10.30;95.30;;;;;;5023126;28;20491;-82
2021/05/16 03:49:28;;;;;;;44.75;28.60;;;10.30;95.30;;;;;;5003339;28;20526;-82
2021/05/16 03:51:54;;;;;;;39.40;26.40;;;10.20;95.20;;;;;;4983688;28;20041;-80
2021/05/16 03:54:20;;;;;;;44.28;27.23;;;10.20;95.30;;;;;;4980076;28;20044;-81
2021/05/16 03:56:46;;;;;;;41.20;26.33;;;10.20;95.30;;;;;;5004483;28;20041;-82
2021/05/16 03:59:12;;;;;;;46.10;27.20;;;10.20;95.20;;;;;;5004477;28;20116;-83
2021/05/16 04:01:38;;;;;;;41.90;26.60;;;10.20;95.20;;;;;;5007876;28;20180;-82
2021/05/16 04:04:04;;;;;;;49.55;26.98;;;10.20;95.20;;;;;;5005556;28;20567;-82
2021/05/16 04:06:30;;;;;;;40.13;26.55;;;10.20;95.20;;;;;;4969628;28;20408;-81
2021/05/16 04:08:56;;;;;;;47.75;26.65;;;10.20;95.20;;;;;;4984899;28;20415;-83
2021/05/16 04:11:22;;;;;;;48.13;26.95;;;10.20;95.30;;;;;;5000023;28;20033;-83
2021/05/16 04:13:48;;;;;;;56.05;28.48;;;10.20;95.30;;;;;;5015061;28;20030;-83
2021/05/16 04:16:14;;;;;;;51.58;28.85;;;10.20;95.30;;;;;;5020895;28;20041;-82
2021/05/16 04:18:40;;;;;;;52.58;28.30;;;10.10;95.30;;;;;;4996765;28;20033;-82
2021/05/16 04:21:06;;;;;;;44.47;27.30;;;10.20;95.30;;;;;;4980739;28;20038;-82
2021/05/16 04:23:34;;;;;;;52.63;28.52;;;10.20;95.40;;;;;;4978203;28;20357;-82
2021/05/16 04:26:01;;;;;;;54.90;27.88;;;10.20;95.40;;;;;;5009401;28;20137;-82
2021/05/16 04:28:27;;;;;;;55.22;27.95;;;10.10;95.40;;;;;;5001882;28;20091;-81
2021/05/16 04:30:53;;;;;;;57.50;29.05;;;10.10;95.40;;;;;;5016873;28;20038;-82
2021/05/16 04:33:18;;;;;;;57.38;27.92;;;10.20;95.40;;;;;;4990677;28;20104;-81
2021/05/16 04:35:44;;;;;;;54.92;28.85;;;10.20;95.50;;;;;;4990771;28;20154;-82
2021/05/16 04:38:10;;;;;;;53.53;27.13;;;10.20;95.50;;;;;;5007820;28;20041;-82
2021/05/16 04:40:36;;;;;;;56.30;28.65;;;10.20;95.50;;;;;;5020208;28;20569;-81
2021/05/16 04:43:02;;;;;;;51.22;27.95;;;10.20;95.40;;;;;;5007479;28;20088;-82
2021/05/16 04:45:28;;;;;;;51.78;27.40;;;10.20;95.50;;;;;;4992893;28;20519;-82
2021/05/16 04:47:54;;;;;;;57.85;29.02;;;10.20;95.50;;;;;;5022004;28;20092;-82
2021/05/16 04:50:20;;;;;;;55.08;28.55;;;10.20;95.40;;;;;;5010470;28;20040;-82
2021/05/16 04:52:46;;;;;;;53.65;27.42;;;10.30;95.50;;;;;;5030118;28;20061;-80
2021/05/16 04:55:14;;;;;;;53.40;28.48;;;10.30;95.50;;;;;;5000096;28;20087;-82
2021/05/16 04:57:40;;;;;;;52.85;28.60;;;10.30;95.50;;;;;;5030107;28;20032;-82
2021/05/16 05:00:08;;;;;;;62.92;31.30;;;10.30;95.40;;;;;;5028588;28;20400;-82
2021/05/16 05:02:35;;;;;;;57.75;30.38;;;10.30;95.40;;;;;;5001272;28;20037;-81
2021/05/16 05:05:03;;;;;;;57.47;29.92;;;10.30;95.40;;;;;;5019313;28;20144;-81
2021/05/16 05:07:29;;;;;;;62.92;30.55;;;10.30;95.40;;;;;;5002707;28;20042;-79
2021/05/16 05:09:56;;;;;;;59.38;30.02;;;10.30;95.40;;;;;;5003242;28;20046;-81
2021/05/16 05:12:21;;;;;;;57.00;28.48;;;10.30;95.40;;;;;;5001613;28;20385;-81
2021/05/16 05:14:47;;;;;;;51.78;30.10;;;10.30;95.40;;;;;;5018630;28;20115;-80
2021/05/16 05:17:13;;;;;;;58.35;30.98;;;10.40;95.40;;;;;;5003695;28;20036;-81
2021/05/16 05:19:39;;;;;;;55.42;30.08;;;10.40;95.40;;;;;;4979167;28;20348;-82
2021/05/16 05:22:05;;;;;;;52.05;29.23;;;10.40;95.40;;;;;;4999063;28;20557;-83
2021/05/16 05:24:31;;;;;;;58.05;29.83;;;10.40;95.40;;;;;;4997701;28;20885;-82
2021/05/16 05:26:56;;;;;;;53.95;28.83;;;10.50;95.50;;;;;;4981169;28;20077;-81
2021/05/16 05:29:22;;;;;;;54.42;29.27;;;10.50;95.50;;;;;;4979689;28;20493;-81
2021/05/16 05:31:48;;;;;;;54.60;29.33;;;10.50;95.40;;;;;;4996471;28;20029;-81
2021/05/16 05:34:14;;;;;;;45.33;28.40;;;10.50;95.40;;;;;;4996460;28;20042;-81
2021/05/16 05:36:40;;;;;;;52.33;29.67;;;10.50;95.40;;;;;;4980752;28;20325;-82
2021/05/16 05:39:07;;;;;;;55.28;29.90;;;10.50;95.40;;;;;;5013087;28;20373;-81
2021/05/16 05:41:34;;;;;;;48.75;27.23;;;10.50;95.50;;;;;;5015385;28;20183;-82
2021/05/16 05:44:00;;;;;;;48.72;29.25;;;10.60;95.40;;;;;;5012727;28;20479;-83
2021/05/16 05:46:27;;;;;;;49.72;29.52;;;10.60;95.40;;;;;;5010272;28;20045;-81
2021/05/16 05:48:53;;;;;;;44.08;29.35;;;10.70;95.40;;;;;;5004823;28;20041;-81
2021/05/16 05:51:19;;;;;;;51.50;28.92;;;10.70;95.40;;;;;;5015672;28;20099;-82
2021/05/16 05:53:45;;;;;;;46.75;26.98;;;10.80;95.40;;;;;;4981064;28;20069;-83
2021/05/16 05:56:11;;;;;;;42.78;26.83;;;11.00;95.40;;;;;;4985326;28;20561;-81
2021/05/16 05:58:37;;;;;;;43.72;27.10;;;11.00;95.30;;;;;;4999144;28;20033;-83
2021/05/16 06:01:03;;;;;;;47.10;26.85;;;11.10;95.20;;;;;;5001061;28;20037;-82
2021/05/16 06:03:29;;;;;;;46.03;27.65;;;11.10;95.10;;;;;;4999759;28;20439;-81
2021/05/16 06:05:55;;;;;;;46.17;27.23;;;11.10;95.00;;;;;;4987446;28;20037;-84
2021/05/16 06:08:21;;;;;;;46.38;27.58;;;11.10;95.00;;;;;;4972257;28;20408;-83
2021/05/16 06:10:49;;;;;;;41.03;27.90;;;11.10;95.30;;;;;;5002399;28;20442;-82
2021/05/16 06:13:15;;;;;;;52.22;28.65;;;11.20;95.00;;;;;;5018163;28;20037;-82
2021/05/16 06:15:41;;;;;;;40.28;27.58;;;11.20;95.00;;;;;;5006148;28;20554;-82
2021/05/16 06:18:07;;;;;;;46.60;27.23;;;11.30;95.00;;;;;;4997804;28;20072;-81
2021/05/16 06:20:34;;;;;;;44.83;27.17;;;11.30;95.00;;;;;;5000046;28;20663;-82
2021/05/16 06:23:03;;;;;;;42.90;26.90;;;11.40;94.90;;;;;;5018867;28;20038;-84
2021/05/16 06:25:30;;;;;;;40.45;26.92;;;11.40;94.90;;;;;;5003046;28;20260;-81
2021/05/16 06:27:56;;;;;;;46.88;26.55;;;11.40;94.80;;;;;;5003578;28;20068;-83
2021/05/16 06:30:26;;;;;;;38.13;25.85;;;11.50;94.80;;;;;;4972903;28;20033;-84
2021/05/16 06:32:52;;;;;;;45.97;27.25;;;11.50;94.70;;;;;;5001810;28;20044;-83
2021/05/16 06:35:19;;;;;;;45.63;27.33;;;11.50;94.60;;;;;;5002675;28;20053;-84
2021/05/16 06:37:46;;;;;;;49.08;26.20;;;11.50;94.60;;;;;;5020278;28;20045;-85
2021/05/16 06:40:13;;;;;;;40.13;24.98;;;11.60;94.60;;;;;;4998249;28;20045;-84
2021/05/16 06:42:40;;;;;;;39.75;25.70;;;11.60;94.50;;;;;;5003868;28;20041;-82
2021/05/16 06:45:07;;;;;;;42.88;26.00;;;11.60;94.40;;;;;;4987427;28;20033;-82
2021/05/16 06:47:33;;;;;;;41.10;23.90;;;11.70;94.50;;;;;;4998672;28;20255;-83
2021/05/16 06:49:59;;;;;;;43.33;24.17;;;11.70;94.30;;;;;;5004016;28;20041;-82
2021/05/16 06:52:25;;;;;;;44.80;24.92;;;11.70;94.10;;;;;;5010236;28;20041;-82
2021/05/16 06:54:50;;;;;;;43.97;24.33;;;11.70;94.10;;;;;;5006191;28;20385;-82
2021/05/16 06:57:17;;;;;;;44.38;23.95;;;11.70;94.10;;;;;;4977809;28;20037;-82
2021/05/16 06:59:43;;;;;;;45.88;23.42;;;11.60;94.10;;;;;;4995691;28;20110;-82
2021/05/16 07:02:08;;;;;;;41.05;21.73;;;11.70;94.10;;;;;;5008406;28;20045;-82
2021/05/16 07:04:34;;;;;;;46.03;24.20;;;11.60;94.00;;;;;;4973695;28;20040;-83
2021/05/16 07:07:01;;;;;;;37.38;18.50;;;11.60;94.00;;;;;;5026694;28;20041;-83
2021/05/16 07:09:27;;;;;;;31.90;18.02;;;11.60;94.00;;;;;;4993763;28;20065;-84
2021/05/16 07:11:54;;;;;;;32.30;17.95;;;11.60;94.00;;;;;;4992638;28;20496;-83
2021/05/16 07:14:20;;;;;;;38.78;18.98;;;11.60;94.00;;;;;;4994613;28;20091;-83
2021/05/16 07:16:46;;;;;;;37.42;19.70;;;11.60;94.20;;;;;;5010873;28;20403;-82
2021/05/16 07:19:12;;;;;;;41.28;21.38;;;11.70;94.30;;;;;;5012402;28;20041;-82
2021/05/16 07:21:38;;;;;;;45.58;21.48;;;11.80;94.20;;;;;;4993363;28;20060;-81
2021/05/16 07:24:05;;;;;;;41.80;21.98;;;11.80;94.20;;;;;;5006112;28;20045;-83
2021/05/16 07:26:31;;;;;;;40.67;20.55;;;11.90;94.20;;;;;;5007879;28;20122;-82
2021/05/16 07:28:57;;;;;;;41.78;20.23;;;11.90;94.20;;;;;;5004986;28;20499;-83
2021/05/16 07:31:23;;;;;;;35.42;18.98;;;12.00;94.20;;;;;;5010856;28;20053;-82
2021/05/16 07:33:49;;;;;;;38.53;19.05;;;12.10;94.00;;;;;;4994107;28;20037;-82
2021/05/16 07:36:15;;;;;;;34.90;17.20;;;12.20;93.80;;;;;;4987836;28;20044;-84
2021/05/16 07:39:01;;;;;;;40.75;18.77;;;12.20;93.40;;;;;;4992912;28;20041;-82
2021/05/16 07:41:27;;;;;;;37.92;19.48;;;12.20;93.30;;;;;;5006443;28;20044;-84
2021/05/16 07:43:53;;;;;;;41.70;19.42;;;12.10;93.30;;;;;;4989711;28;20046;-83
2021/05/16 07:46:19;;;;;;;45.25;19.85;;;12.00;93.20;;;;;;5011843;28;20033;-82
2021/05/16 07:48:49;;;;;;;40.60;19.23;;;12.00;93.50;;;;;;5010182;28;20124;-82
2021/05/16 07:51:15;;;;;;;37.25;17.55;;;12.00;93.60;;;;;;5027245;28;20101;-82
2021/05/16 07:53:41;;;;;;;36.80;16.30;;;12.00;93.50;;;;;;5007959;28;20562;-83
2021/05/16 07:56:09;;;;;;;39.22;16.80;;;12.00;93.40;;;;;;4992320;28;20136;-82
2021/05/16 07:58:35;;;;;;;37.00;15.02;;;12.00;93.30;;;;;;5004152;28;20450;-87
2021/05/16 08:01:00;;;;;;;30.10;14.25;;;12.00;93.20;;;;;;4992227;28;20042;-86
2021/05/16 08:03:27;;;;;;;30.92;14.75;;;11.90;93.10;;;;;;4972436;28;20084;-82
2021/05/16 08:05:53;;;;;;;36.08;15.93;;;11.90;93.10;;;;;;4982491;28;20041;-84
2021/05/16 08:08:19;;;;;;;24.98;11.05;;;12.00;93.20;;;;;;5006223;28;20404;-84
2021/05/16 08:10:45;;;;;;;24.00;8.30;;;12.10;93.10;;;;;;5006477;28;20462;-83
2021/05/16 08:13:12;;;;;;;20.75;8.25;;;12.20;92.50;;;;;;5025777;28;20057;-82
2021/05/16 08:15:38;;;;;;;21.15;9.43;;;12.20;92.60;;;;;;4994709;28;20107;-84
2021/05/16 08:18:05;;;;;;;24.60;9.63;;;12.30;92.10;;;;;;4997025;28;20073;-83
2021/05/16 08:20:38;;;;;;;18.30;8.10;;;12.40;92.10;;;;;;5000946;28;20033;-84
2021/05/16 08:23:04;;;;;;;16.10;7.95;;;12.40;91.80;;;;;;5015285;28;20041;-83
2021/05/16 08:25:31;;;;;;;17.88;8.35;;;12.50;91.80;;;;;;4995904;28;20091;-84
2021/05/16 08:27:58;;;;;;;19.98;9.27;;;12.60;91.50;;;;;;4994080;28;20308;-84
2021/05/16 08:30:24;;;;;;;22.58;9.48;;;12.60;91.20;;;;;;5008417;28;20033;-85
2021/05/16 08:32:49;;;;;;;20.33;9.20;;;12.60;91.20;;;;;;4995408;28;20128;-86
2021/05/16 08:35:15;;;;;;;23.02;8.73;;;12.70;91.10;;;;;;5009392;28;20029;-85
2021/05/16 08:37:42;;;;;;;25.08;9.30;;;12.70;90.90;;;;;;5007422;28;20064;-86
2021/05/16 08:40:09;;;;;;;18.80;9.02;;;12.70;91.00;;;;;;4996566;28;20120;-86
2021/05/16 08:42:34;;;;;;;21.38;10.02;;;12.80;90.80;;;;;;5018936;28;20163;-86
2021/05/16 08:45:00;;;;;;;23.23;9.88;;;12.80;90.80;;;;;;5013595;28;20571;-87
2021/05/16 08:47:28;;;;;;;25.65;10.77;;;12.90;90.70;;;;;;5002702;28;20415;-86
2021/05/16 08:49:53;;;;;;;27.02;10.98;;;13.00;90.50;;;;;;4999400;28;20511;-85
2021/05/16 08:52:19;;;;;;;24.42;10.20;;;13.20;90.50;;;;;;4997913;28;20033;-86
2021/05/16 08:54:52;;;;;;;30.20;11.32;;;13.40;90.10;;;;;;5002095;28;20046;-85
2021/05/16 08:57:18;;;;;;;21.52;9.20;;;13.50;90.10;;;;;;4987127;28;20033;-85
2021/05/16 09:00:06;;;;;;;16.80;8.13;;;13.50;89.00;;;;;;4979687;28;20051;-84
2021/05/16 09:03:06;;;;;;;17.65;8.65;;;13.40;88.70;;;;;;5014054;28;20045;-88
2021/05/16 09:05:37;;;;;;;17.27;5.80;;;13.20;88.00;;;;;;5016275;28;20522;-87
2021/05/16 09:08:12;;;;;;;10.60;3.05;;;12.90;89.20;;;;;;5002971;28;20126;-86
2021/05/16 09:10:40;;;;;;;6.57;2.38;;;12.20;90.10;;;;;;5011430;28;20037;-84
2021/05/16 09:13:11;;;;;;;8.35;2.65;;;11.50;90.80;;;;;;4991313;28;20038;-86
2021/05/16 09:15:37;;;;;;;8.32;2.50;;;11.00;91.70;;;;;;5006198;28;20045;-86
2021/05/16 09:18:04;;;;;;;5.70;2.47;;;10.70;92.30;;;;;;4989264;28;20046;-86
2021/05/16 09:20:30;;;;;;;6.28;2.00;;;10.40;92.90;;;;;;5009105;28;20062;-89
2021/05/16 09:22:56;;;;;;;4.30;1.83;;;10.30;93.30;;;;;;4975109;28;20045;-85
2021/05/16 09:25:31;;;;;;;6.57;2.33;;;10.20;93.80;;;;;;4982552;28;20052;-83
2021/05/16 09:28:14;;;;;;;10.98;3.50;;;10.20;94.10;;;;;;5020320;28;20029;-88
2021/05/16 09:30:41;;;;;;;11.40;3.20;;;10.40;94.80;;;;;;4984372;28;20269;-87
2021/05/16 09:33:13;;;;;;;11.15;3.90;;;10.60;94.70;;;;;;4990013;28;20029;-87
2021/05/16 09:35:44;;;;;;;11.40;3.58;;;10.80;94.90;;;;;;5007881;28;20476;-84
2021/05/16 09:38:14;;;;;;;9.07;3.90;;;10.90;94.90;;;;;;5012397;28;20052;-85
2021/05/16 09:40:42;;;;;;;11.07;4.65;;;10.90;94.80;;;;;;5030403;28;20029;-85
2021/05/16 09:43:13;;;;;;;11.85;5.15;;;10.90;94.80;;;;;;5033741;28;20108;-82
2021/05/16 09:45:55;;;;;;;17.25;6.38;;;11.00;94.90;;;;;;5032207;28;20113;-85
2021/05/16 09:48:38;;;;;;;16.80;6.03;;;11.10;95.10;;;;;;5006640;28;20037;-83
2021/05/16 09:51:15;;;;;;;9.85;6.28;;;11.10;95.00;;;;;;5004466;28;20478;-84
2021/05/16 09:53:53;;;;;;;17.70;8.20;;;11.20;95.10;;;;;;4996927;28;20052;-88
2021/05/16 09:56:28;;;;;;;20.80;8.50;;;11.30;95.40;;;;;;5026000;28;20159;-84
2021/05/16 09:58:57;;;;;;;14.85;6.38;;;11.40;95.50;;;;;;5008702;28;20037;-84
2021/05/16 10:01:25;;;;;;;12.20;6.47;;;11.50;95.40;;;;;;5012719;28;20061;-83
2021/05/16 10:03:59;;;;;;;9.65;6.30;;;11.50;95.20;;;;;;4996540;28;20072;-86
2021/05/16 10:06:28;;;;;;;8.57;7.15;;;11.50;95.20;;;;;;5008487;28;20049;-84
2021/05/16 10:08:54;;;;;;;13.95;7.88;;;11.60;95.30;;;;;;5028275;28;20052;-84
2021/05/16 10:11:27;;;;;;;14.93;8.55;;;11.70;95.30;;;;;;4974778;28;20033;-84
2021/05/16 10:14:12;;;;;;;12.80;7.30;;;11.90;95.40;;;;;;5021177;28;20417;-85
2021/05/16 10:16:42;;;;;;;10.48;6.22;;;12.10;95.50;;;;;;5018619;28;20037;-85
2021/05/16 10:19:16;;;;;;;8.38;5.85;;;12.20;95.10;;;;;;5021284;28;20701;-85
2021/05/16 10:21:44;;;;;;;5.22;3.30;;;12.30;95.20;;;;;;5021651;28;20083;-87
2021/05/16 10:24:15;;;;;;;5.85;3.50;;;12.30;94.80;;;;;;5001695;28;20033;-86
2021/05/16 10:26:42;;;;;;;9.20;4.10;;;12.30;94.60;;;;;;5019289;28;20080;-84
2021/05/16 10:29:10;;;;;;;8.40;3.83;;;12.30;94.50;;;;;;4999837;28;20029;-83
2021/05/16 10:31:44;;;;;;;6.10;3.58;;;12.40;94.40;;;;;;4999412;28;20164;-83
2021/05/16 10:34:25;;;;;;;5.10;3.00;;;12.50;94.30;;;;;;5020590;28;20121;-86
2021/05/16 10:36:52;;;;;;;3.55;2.03;;;12.50;94.10;;;;;;5003015;28;20041;-83
2021/05/16 10:39:48;;;;;;;6.75;2.05;;;12.50;93.90;;;;;;5003324;28;20029;-84
2021/05/16 10:42:18;;;;;;;6.05;1.70;;;12.50;93.50;;;;;;5009304;28;20063;-85
2021/05/16 10:45:03;;;;;;;3.30;2.20;;;12.60;93.70;;;;;;5007600;28;20037;-88
2021/05/16 10:47:59;;;;;;;4.30;2.10;;;12.70;93.50;;;;;;5011876;28;20037;-84
2021/05/16 10:50:25;;;;;;;4.97;2.40;;;12.70;93.50;;;;;;5002613;28;20399;-86
2021/05/16 10:53:05;;;;;;;5.20;1.65;;;12.70;93.00;;;;;;5003731;28;20041;-85
2021/05/16 10:55:36;;;;;;;3.08;1.77;;;12.60;92.40;;;;;;5019521;28;20037;-88
2021/05/16 10:58:03;;;;;;;6.82;2.38;;;12.60;92.10;;;;;;5006199;28;20691;-85
2021/05/16 11:00:31;;;;;;;5.00;1.73;;;12.50;92.00;;;;;;4991337;28;20088;-86
2021/05/16 11:03:02;;;;;;;5.15;2.67;;;12.40;92.10;;;;;;5008880;28;20084;-86
2021/05/16 11:05:46;;;;;;;6.05;2.60;;;12.40;92.30;;;;;;4995210;28;20040;-85
2021/05/16 11:08:32;;;;;;;5.35;3.15;;;12.40;92.30;;;;;;5026480;28;20030;-87
2021/05/16 11:11:01;;;;;;;3.83;2.10;;;12.20;92.50;;;;;;5031407;28;20109;-88
2021/05/16 11:13:34;;;;;;;7.35;2.05;;;12.00;92.50;;;;;;5030745;28;20051;-86
2021/05/16 11:16:06;;;;;;;;;;;11.70;92.40;;;;;;5005986;28;20021;-85
2021/05/16 11:18:33;;;;;;;5.25;2.00;;;11.40;92.40;;;;;;5018975;28;20256;-86
2021/05/16 11:21:05;;;;;;;7.80;2.22;;;11.20;92.60;;;;;;4987382;28;20111;-85
2021/05/16 11:23:33;;;;;;;5.40;2.50;;;10.90;92.90;;;;;;4999202;28;21757;-87
2021/05/16 11:26:01;;;;;;;10.82;2.75;;;10.70;93.20;;;;;;4985023;28;20126;-89
2021/05/16 11:29:04;;;;;;;10.07;2.83;;;10.60;93.50;;;;;;4981868;28;20235;-89
2021/05/16 11:31:34;;;;;;;10.45;3.25;;;10.50;93.90;;;;;;4963941;28;20064;-87
2021/05/16 11:34:07;;;;;;;9.15;3.45;;;10.40;94.10;;;;;;5002850;28;20033;-89
2021/05/16 11:36:35;;;;;;;12.10;3.58;;;10.40;94.40;;;;;;4986132;28;20034;-89
2021/05/16 11:39:04;;;;;;;11.07;3.58;;;10.40;94.60;;;;;;5001651;28;20116;-89
2021/05/16 11:41:35;;;;;;;9.88;4.13;;;10.40;94.80;;;;;;4999594;28;20029;-88
2021/05/16 11:44:06;;;;;;;16.38;5.25;;;10.50;95.00;;;;;;5019070;28;20034;-89
2021/05/16 11:46:34;;;;;;;14.40;4.82;;;10.70;95.10;;;;;;4989385;28;20561;-88
2021/05/16 11:49:00;;;;;;;15.52;5.75;;;10.80;95.20;;;;;;5006805;28;20103;-88
2021/05/16 11:51:28;;;;;;;10.95;6.22;;;10.90;95.50;;;;;;5027293;28;20040;-87
2021/05/16 11:54:03;;;;;;;12.75;4.95;;;11.10;95.70;;;;;;5003433;28;21572;-87
2021/05/16 11:56:30;;;;;;;16.48;7.40;;;11.30;95.80;;;;;;5007540;28;20069;-87
2021/05/16 11:58:58;;;;;;;10.80;4.43;;;11.50;96.00;;;;;;5024734;28;20068;-87
2021/05/16 12:01:26;;;;;;;7.35;3.90;;;11.80;96.30;;;;;;4991212;28;20029;-87
2021/05/16 12:03:53;;;;;;;7.03;2.75;;;12.10;96.10;;;;;;5022090;28;20506;-84
2021/05/16 12:06:19;;;;;;;5.32;1.67;;;12.20;96.10;;;;;;5025088;28;20512;-85
2021/05/16 12:08:56;;;;;;;3.90;1.77;;;12.30;96.00;;;;;;4988972;28;20500;-86
2021/05/16 12:11:21;;;;;;;10.07;2.13;;;12.30;95.70;;;;;;5027262;28;20069;-87
2021/05/16 12:13:48;;;;;;;9.90;2.00;;;12.40;95.60;;;;;;4999185;28;20033;-85
2021/05/16 12:16:23;;;;;;;7.38;1.92;;;12.40;95.60;;;;;;4993277;28;20499;-84
2021/05/16 12:18:53;;;;;;;6.30;1.70;;;12.40;95.60;;;;;;5013488;28;20494;-87
2021/05/16 12:21:19;;;;;;;8.30;2.40;;;12.40;95.10;;;;;;5030281;28;20033;-86
2021/05/16 12:24:01;;;;;;;5.88;2.13;;;12.40;95.20;;;;;;5011468;28;20072;-86
2021/05/16 12:26:30;;;;;;;4.97;1.85;;;12.40;95.40;;;;;;5008271;28;20143;-87
2021/05/16 12:28:57;;;;;;;8.20;2.60;;;12.40;95.50;;;;;;5012753;28;20376;-88
2021/05/16 12:31:24;;;;;;;9.25;2.72;;;12.40;95.50;;;;;;5001713;28;20028;-87
2021/05/16 12:33:53;;;;;;;7.10;2.65;;;12.50;95.90;;;;;;5013156;28;20029;-86
2021/05/16 12:36:22;;;;;;;6.55;2.35;;;12.70;96.10;;;;;;5031443;28;20511;-87
2021/05/16 12:38:50;;;;;;;9.82;2.85;;;12.90;96.00;;;;;;5014523;28;20057;-87